createdAt,value
2018-09-01T00:01:30.499Z,97405.00
2018-09-01T00:04:00.387Z,97406.00
2018-09-01T00:06:31.432Z,97407.00
2018-09-01T00:09:21.063Z,97401.00
2018-09-01T00:11:52.560Z,97403.00
2018-09-01T00:14:22.487Z,97403.00
2018-09-01T00:16:52.366Z,97407.00
2018-09-01T00:19:22.171Z,97410.00
2018-09-01T00:21:52.234Z,97408.00
2018-09-01T00:24:22.225Z,97413.00
2018-09-01T00:26:52.682Z,97407.00
2018-09-01T00:29:22.602Z,97404.00
2018-09-01T00:31:53.146Z,97406.00
2018-09-01T00:34:24.642Z,97407.00
2018-09-01T00:36:55.050Z,97412.00
2018-09-01T00:39:25.386Z,97409.00
2018-09-01T00:42:06.399Z,97404.00
2018-09-01T00:44:36.641Z,97405.00
2018-09-01T00:47:06.585Z,97405.00
2018-09-01T00:49:37.378Z,97405.00
2018-09-01T00:52:07.549Z,97402.00
2018-09-01T00:54:38.562Z,97402.00
2018-09-01T00:57:10.061Z,97405.00
2018-09-01T00:59:40.810Z,97408.00
2018-09-01T01:02:11.115Z,97410.00
2018-09-01T01:04:41.654Z,97414.00
2018-09-01T01:07:13.793Z,97410.00
2018-09-01T01:09:46.682Z,97414.00
2018-09-01T01:12:22.835Z,97414.00
2018-09-01T01:14:53.526Z,97418.00
2018-09-01T01:17:24.536Z,97417.00
2018-09-01T01:19:55.581Z,97421.00
2018-09-01T01:22:26.215Z,97426.00
2018-09-01T01:24:56.156Z,97423.00
2018-09-01T01:27:34.614Z,97427.00
2018-09-01T01:30:04.773Z,97421.00
2018-09-01T01:32:35.229Z,97427.00
2018-09-01T01:35:17.718Z,97417.00
2018-09-01T01:40:25.554Z,97409.00
2018-09-01T01:42:55.535Z,97411.00
2018-09-01T01:45:24.957Z,97403.00
2018-09-01T01:47:55.405Z,97411.00
2018-09-01T01:50:25.411Z,97408.00
2018-09-01T01:53:10.882Z,97406.00
2018-09-01T01:55:40.660Z,97408.00
2018-09-01T01:58:10.503Z,97411.00
2018-09-01T02:00:40.335Z,97411.00
2018-09-01T02:03:10.096Z,97416.00
2018-09-01T02:05:39.883Z,97412.00
2018-09-01T02:08:09.684Z,97419.00
2018-09-01T02:10:40.274Z,97419.00
2018-09-01T02:13:10.005Z,97419.00
2018-09-01T02:15:45.614Z,97428.00
2018-09-01T02:20:53.777Z,97421.00
2018-09-01T02:23:23.467Z,97426.00
2018-09-01T02:25:53.311Z,97427.00
2018-09-01T02:28:23.069Z,97432.00
2018-09-01T02:30:52.746Z,97425.00
2018-09-01T02:33:22.488Z,97427.00
2018-09-01T02:35:52.182Z,97426.00
2018-09-01T02:38:22.045Z,97431.00
2018-09-01T02:40:51.760Z,97427.00
2018-09-01T02:43:21.535Z,97432.00
2018-09-01T02:45:51.262Z,97434.00
2018-09-01T02:48:23.055Z,97431.00
2018-09-01T02:50:52.896Z,97429.00
2018-09-01T02:53:22.614Z,97439.00
2018-09-01T02:55:52.285Z,97438.00
2018-09-01T02:58:23.969Z,97436.00
2018-09-01T03:00:58.959Z,97438.00
2018-09-01T03:03:28.607Z,97440.00
2018-09-01T03:05:58.295Z,97438.00
2018-09-01T03:08:28.463Z,97437.00
2018-09-01T03:10:58.254Z,97439.00
2018-09-01T03:13:27.959Z,97432.00
2018-09-01T03:15:57.845Z,97437.00
2018-09-01T03:18:27.731Z,97437.00
2018-09-01T03:20:57.468Z,97436.00
2018-09-01T03:23:27.151Z,97435.00
2018-09-01T03:25:56.817Z,97433.00
2018-09-01T03:28:26.494Z,97436.00
2018-09-01T03:30:56.371Z,97433.00
2018-09-01T03:33:26.051Z,97432.00
2018-09-01T03:35:55.767Z,97434.00
2018-09-01T03:38:25.477Z,97431.00
2018-09-01T03:40:57.656Z,97432.00
2018-09-01T03:43:27.452Z,97429.00
2018-09-01T03:45:57.208Z,97428.00
2018-09-01T03:48:26.962Z,97430.00
2018-09-01T03:50:56.793Z,97431.00
2018-09-01T03:53:26.580Z,97429.00
2018-09-01T03:55:56.501Z,97424.00
2018-09-01T03:58:27.059Z,97429.00
2018-09-01T04:00:56.878Z,97426.00
2018-09-01T04:03:27.335Z,97426.00
2018-09-01T04:05:57.260Z,97422.00
2018-09-01T04:08:27.043Z,97422.00
2018-09-01T04:10:57.038Z,97425.00
2018-09-01T04:13:28.241Z,97423.00
2018-09-01T04:18:39.622Z,97418.00
2018-09-01T04:21:09.143Z,97416.00
2018-09-01T04:23:38.678Z,97415.00
2018-09-01T04:26:08.397Z,97419.00
2018-09-01T04:28:37.772Z,97421.00
2018-09-01T04:31:07.289Z,97416.00
2018-09-01T04:33:36.654Z,97422.00
2018-09-01T04:36:06.013Z,97424.00
2018-09-01T04:38:35.326Z,97426.00
2018-09-01T04:41:04.791Z,97429.00
2018-09-01T04:43:34.250Z,97427.00
2018-09-01T04:46:03.713Z,97425.00
2018-09-01T04:48:33.292Z,97429.00
2018-09-01T04:51:02.636Z,97427.00
2018-09-01T04:53:31.975Z,97426.00
2018-09-01T04:56:01.363Z,97428.00
2018-09-01T04:58:30.697Z,97427.00
2018-09-01T05:01:00.264Z,97429.00
2018-09-01T05:03:29.498Z,97427.00
2018-09-01T05:05:58.871Z,97424.00
2018-09-01T05:08:28.293Z,97427.00
2018-09-01T05:10:57.810Z,97430.00
2018-09-01T05:13:27.169Z,97425.00
2018-09-01T05:15:56.792Z,97428.00
2018-09-01T05:18:26.175Z,97425.00
2018-09-01T05:20:55.564Z,97429.00
2018-09-01T05:23:25.089Z,97431.00
2018-09-01T05:25:54.439Z,97430.00
2018-09-01T05:28:24.049Z,97435.00
2018-09-01T05:30:53.407Z,97433.00
2018-09-01T05:33:22.799Z,97436.00
2018-09-01T05:35:52.163Z,97438.00
2018-09-01T05:38:31.178Z,97434.00
2018-09-01T05:41:00.563Z,97432.00
2018-09-01T05:43:30.097Z,97436.00
2018-09-01T05:45:59.521Z,97437.00
2018-09-01T05:48:28.828Z,97431.00
2018-09-01T05:50:58.144Z,97438.00
2018-09-01T05:53:27.605Z,97442.00
2018-09-01T05:55:56.928Z,97436.00
2018-09-01T05:58:26.409Z,97434.00
2018-09-01T06:00:55.825Z,97435.00
2018-09-01T06:03:25.309Z,97424.00
2018-09-01T06:05:54.668Z,97430.00
2018-09-01T06:08:24.118Z,97434.00
2018-09-01T06:10:53.441Z,97444.00
2018-09-01T06:13:22.965Z,97448.00
2018-09-01T06:15:52.366Z,97456.00
2018-09-01T06:18:21.802Z,97463.00
2018-09-01T06:20:51.104Z,97468.00
2018-09-01T06:23:20.552Z,97472.00
2018-09-01T06:25:49.867Z,97471.00
2018-09-01T06:28:22.961Z,97473.00
2018-09-01T06:30:53.728Z,97475.00
2018-09-01T06:33:23.205Z,97479.00
2018-09-01T06:35:52.581Z,97483.00
2018-09-01T06:38:21.913Z,97484.00
2018-09-01T06:40:51.268Z,97482.00
2018-09-01T06:43:20.617Z,97481.00
2018-09-01T06:45:49.934Z,97477.00
2018-09-01T06:48:20.101Z,97479.00
2018-09-01T06:50:59.673Z,97482.00
2018-09-01T06:53:29.197Z,97478.00
2018-09-01T06:55:58.583Z,97484.00
2018-09-01T06:58:28.076Z,97482.00
2018-09-01T07:00:57.404Z,97482.00
2018-09-01T07:03:26.863Z,97488.00
2018-09-01T07:05:56.168Z,97494.00
2018-09-01T07:08:25.645Z,97492.00
2018-09-01T07:10:55.037Z,97501.00
2018-09-01T07:13:24.352Z,97500.00
2018-09-01T07:15:53.820Z,97500.00
2018-09-01T07:18:23.337Z,97503.00
2018-09-01T07:20:52.962Z,97506.00
2018-09-01T07:23:22.448Z,97505.00
2018-09-01T07:25:51.952Z,97506.00
2018-09-01T07:28:21.416Z,97512.00
2018-09-01T07:30:51.670Z,97509.00
2018-09-01T07:33:21.567Z,97503.00
2018-09-01T07:35:51.388Z,97507.00
2018-09-01T07:38:20.841Z,97510.00
2018-09-01T07:40:50.194Z,97511.00
2018-09-01T07:43:19.799Z,97517.00
2018-09-01T07:45:49.524Z,97516.00
2018-09-01T07:48:19.582Z,97523.00
2018-09-01T07:50:49.441Z,97531.00
2018-09-01T07:56:05.151Z,97529.00
2018-09-01T07:58:34.733Z,97534.00
2018-09-01T08:01:04.281Z,97538.00
2018-09-01T08:03:33.655Z,97541.00
2018-09-01T08:06:03.013Z,97546.00
2018-09-01T08:08:33.618Z,97542.00
2018-09-01T08:11:02.998Z,97552.00
2018-09-01T08:13:32.376Z,97556.00
2018-09-01T08:16:01.843Z,97557.00
2018-09-01T08:18:31.272Z,97559.00
2018-09-01T08:21:00.663Z,97560.00
2018-09-01T08:23:31.176Z,97561.00
2018-09-01T08:26:00.595Z,97563.00
2018-09-01T08:28:30.116Z,97558.00
2018-09-01T08:30:59.550Z,97560.00
2018-09-01T08:33:28.915Z,97564.00
2018-09-01T08:35:59.400Z,97567.00
2018-09-01T08:38:29.022Z,97575.00
2018-09-01T08:40:59.169Z,97575.00
2018-09-01T08:43:41.570Z,97578.00
2018-09-01T08:46:10.875Z,97576.00
2018-09-01T08:48:47.129Z,97581.00
2018-09-01T08:51:16.693Z,97582.00
2018-09-01T08:53:46.271Z,97586.00
2018-09-01T08:56:15.601Z,97591.00
2018-09-01T08:58:45.160Z,97591.00
2018-09-01T09:01:15.561Z,97592.00
2018-09-01T09:03:44.957Z,97597.00
2018-09-01T09:06:18.586Z,97600.00
2018-09-01T09:08:48.354Z,97602.00
2018-09-01T09:11:18.455Z,97604.00
2018-09-01T09:13:47.867Z,97603.00
2018-09-01T09:16:34.005Z,97604.00
2018-09-01T09:19:03.769Z,97598.00
2018-09-01T09:21:33.287Z,97594.00
2018-09-01T09:24:02.712Z,97600.00
2018-09-01T09:26:32.144Z,97598.00
2018-09-01T09:29:01.587Z,97606.00
2018-09-01T09:31:30.977Z,97603.00
2018-09-01T09:34:00.497Z,97609.00
2018-09-01T09:36:29.888Z,97615.00
2018-09-01T09:38:59.265Z,97613.00
2018-09-01T09:41:28.630Z,97610.00
2018-09-01T09:43:57.874Z,97606.00
2018-09-01T09:46:27.220Z,97607.00
2018-09-01T09:48:56.558Z,97608.00
2018-09-01T09:51:25.894Z,97614.00
2018-09-01T09:53:55.430Z,97620.00
2018-09-01T09:56:24.741Z,97620.00
2018-09-01T09:58:54.168Z,97620.00
2018-09-01T10:01:33.633Z,97624.00
2018-09-01T10:04:03.238Z,97621.00
2018-09-01T10:06:32.778Z,97624.00
2018-09-01T10:09:02.366Z,97623.00
2018-09-01T10:11:32.156Z,97628.00
2018-09-01T10:14:01.922Z,97629.00
2018-09-01T10:16:31.694Z,97632.00
2018-09-01T10:19:01.423Z,97631.00
2018-09-01T10:21:31.227Z,97631.00
2018-09-01T10:24:00.922Z,97634.00
2018-09-01T10:26:30.710Z,97632.00
2018-09-01T10:29:00.450Z,97628.00
2018-09-01T10:31:35.338Z,97629.00
2018-09-01T10:34:04.993Z,97629.00
2018-09-01T10:36:45.085Z,97628.00
2018-09-01T10:39:14.809Z,97630.00
2018-09-01T10:41:44.482Z,97631.00
2018-09-01T10:44:14.265Z,97628.00
2018-09-01T10:46:43.904Z,97629.00
2018-09-01T10:49:13.579Z,97626.00
2018-09-01T10:51:45.042Z,97626.00
2018-09-01T10:54:14.665Z,97630.00
2018-09-01T10:56:48.602Z,97631.00
2018-09-01T10:59:18.429Z,97636.00
2018-09-01T11:01:48.139Z,97639.00
2018-09-01T11:04:18.038Z,97640.00
2018-09-01T11:06:48.132Z,97639.00
2018-09-01T11:09:17.928Z,97639.00
2018-09-01T11:11:47.619Z,97645.00
2018-09-01T11:14:17.308Z,97647.00
2018-09-01T11:16:47.306Z,97643.00
2018-09-01T11:19:17.014Z,97640.00
2018-09-01T11:21:47.752Z,97635.00
2018-09-01T11:24:17.486Z,97635.00
2018-09-01T11:26:47.188Z,97629.00
2018-09-01T11:29:16.977Z,97636.00
2018-09-01T11:31:48.167Z,97631.00
2018-09-01T11:34:18.151Z,97636.00
2018-09-01T11:36:48.138Z,97635.00
2018-09-01T11:39:21.258Z,97637.00
2018-09-01T11:41:50.936Z,97638.00
2018-09-01T11:44:20.643Z,97637.00
2018-09-01T11:46:56.967Z,97643.00
2018-09-01T11:49:27.685Z,97635.00
2018-09-01T11:51:57.420Z,97631.00
2018-09-01T11:54:27.123Z,97632.00
2018-09-01T11:57:13.965Z,97637.00
2018-09-01T11:59:43.621Z,97637.00
2018-09-01T12:02:13.449Z,97638.00
2018-09-01T12:04:43.158Z,97640.00
2018-09-01T12:07:12.974Z,97645.00
2018-09-01T12:09:42.699Z,97647.00
2018-09-01T12:12:31.519Z,97653.00
2018-09-01T12:15:01.285Z,97645.00
2018-09-01T12:17:39.198Z,97650.00
2018-09-01T12:20:08.891Z,97649.00
2018-09-01T12:22:38.661Z,97650.00
2018-09-01T12:25:14.044Z,97649.00
2018-09-01T12:27:43.981Z,97645.00
2018-09-01T12:30:13.892Z,97652.00
2018-09-01T12:32:45.671Z,97652.00
2018-09-01T12:35:24.941Z,97653.00
2018-09-01T12:38:03.515Z,97658.00
2018-09-01T12:40:33.424Z,97658.00
2018-09-01T12:43:08.701Z,97661.00
2018-09-01T12:45:47.122Z,97662.00
2018-09-01T12:48:16.963Z,97660.00
2018-09-01T12:50:49.983Z,97657.00
2018-09-01T12:53:31.339Z,97658.00
2018-09-01T12:56:01.702Z,97663.00
2018-09-01T12:58:32.509Z,97654.00
2018-09-01T13:01:02.642Z,97661.00
2018-09-01T13:03:48.657Z,97664.00
2018-09-01T13:06:18.808Z,97668.00
2018-09-01T13:08:58.934Z,97664.00
2018-09-01T13:11:28.573Z,97671.00
2018-09-01T13:13:58.691Z,97660.00
2018-09-01T13:16:30.506Z,97654.00
2018-09-01T13:19:00.182Z,97657.00
2018-09-01T13:21:35.783Z,97654.00
2018-09-01T13:24:05.523Z,97652.00
2018-09-01T13:26:35.624Z,97657.00
2018-09-01T13:29:11.768Z,97660.00
2018-09-01T13:31:43.898Z,97661.00
2018-09-01T13:34:13.903Z,97670.00
2018-09-01T13:37:01.063Z,97673.00
2018-09-01T13:39:40.660Z,97671.00
2018-09-01T13:42:10.415Z,97662.00
2018-09-01T13:44:45.534Z,97660.00
2018-09-01T13:47:15.319Z,97666.00
2018-09-01T13:49:45.012Z,97662.00
2018-09-01T13:52:14.738Z,97662.00
2018-09-01T13:54:44.645Z,97663.00
2018-09-01T13:57:26.424Z,97664.00
2018-09-01T13:59:56.022Z,97661.00
2018-09-01T14:02:26.163Z,97660.00
2018-09-01T14:04:55.846Z,97665.00
2018-09-01T14:07:25.572Z,97669.00
2018-09-01T14:09:55.262Z,97660.00
2018-09-01T14:12:25.052Z,97664.00
2018-09-01T14:14:55.011Z,97666.00
2018-09-01T14:17:24.831Z,97663.00
2018-09-01T14:19:54.819Z,97669.00
2018-09-01T14:22:24.462Z,97672.00
2018-09-01T14:24:59.410Z,97669.00
2018-09-01T14:27:29.062Z,97666.00
2018-09-01T14:29:58.923Z,97661.00
2018-09-01T14:32:28.794Z,97657.00
2018-09-01T14:34:58.415Z,97662.00
2018-09-01T14:37:35.138Z,97654.00
2018-09-01T14:40:05.164Z,97659.00
2018-09-01T14:42:35.226Z,97658.00
2018-09-01T14:45:05.416Z,97658.00
2018-09-01T14:47:42.317Z,97662.00
2018-09-01T14:50:12.121Z,97664.00
2018-09-01T14:52:42.214Z,97663.00
2018-09-01T14:55:26.427Z,97664.00
2018-09-01T14:57:56.162Z,97667.00
2018-09-01T15:00:26.043Z,97662.00
2018-09-01T15:03:01.607Z,97669.00
2018-09-01T15:05:31.249Z,97671.00
2018-09-01T15:08:00.971Z,97671.00
2018-09-01T15:10:36.192Z,97671.00
2018-09-01T15:13:12.210Z,97676.00
2018-09-01T15:18:49.776Z,97672.00
2018-09-01T15:21:20.210Z,97677.00
2018-09-01T15:23:50.540Z,97677.00
2018-09-01T15:26:26.142Z,97679.00
2018-09-01T15:28:55.771Z,97683.00
2018-09-01T15:31:25.415Z,97685.00
2018-09-01T15:33:55.496Z,97686.00
2018-09-01T15:36:25.149Z,97685.00
2018-09-01T15:38:54.878Z,97693.00
2018-09-01T15:41:28.314Z,97694.00
2018-09-01T15:43:58.234Z,97700.00
2018-09-01T15:46:28.091Z,97694.00
2018-09-01T15:49:03.370Z,97696.00
2018-09-01T15:51:33.366Z,97696.00
2018-09-01T15:54:03.494Z,97704.00
2018-09-01T15:56:34.843Z,97703.00
2018-09-01T15:59:05.566Z,97705.00
2018-09-01T16:01:35.963Z,97706.00
2018-09-01T16:04:06.462Z,97705.00
2018-09-01T16:06:36.544Z,97710.00
2018-09-01T16:09:07.871Z,97709.00
2018-09-01T16:11:38.111Z,97712.00
2018-09-01T16:14:08.539Z,97713.00
2018-09-01T16:16:38.574Z,97706.00
2018-09-01T16:19:08.920Z,97706.00
2018-09-01T16:21:39.131Z,97696.00
2018-09-01T16:24:09.415Z,97705.00
2018-09-01T16:26:39.537Z,97697.00
2018-09-01T16:29:09.618Z,97692.00
2018-09-01T16:31:39.985Z,97700.00
2018-09-01T16:34:10.237Z,97692.00
2018-09-01T16:36:40.691Z,97694.00
2018-09-01T16:39:11.049Z,97690.00
2018-09-01T16:41:41.350Z,97696.00
2018-09-01T16:44:11.651Z,97698.00
2018-09-01T16:46:42.098Z,97689.00
2018-09-01T16:49:12.388Z,97690.00
2018-09-01T16:51:42.396Z,97693.00
2018-09-01T16:54:12.695Z,97688.00
2018-09-01T16:56:42.830Z,97689.00
2018-09-01T16:59:13.150Z,97688.00
2018-09-01T17:01:43.631Z,97695.00
2018-09-01T17:04:13.742Z,97693.00
2018-09-01T17:06:44.343Z,97697.00
2018-09-01T17:09:14.457Z,97699.00
2018-09-01T17:11:44.775Z,97710.00
2018-09-01T17:14:15.265Z,97715.00
2018-09-01T17:16:45.526Z,97719.00
2018-09-01T17:19:15.541Z,97724.00
2018-09-01T17:21:45.903Z,97726.00
2018-09-01T17:24:15.881Z,97729.00
2018-09-01T17:26:46.335Z,97730.00
2018-09-01T17:29:16.371Z,97726.00
2018-09-01T17:31:46.380Z,97721.00
2018-09-01T17:34:16.783Z,97717.00
2018-09-01T17:36:46.948Z,97716.00
2018-09-01T17:39:17.294Z,97725.00
2018-09-01T17:41:47.446Z,97722.00
2018-09-01T17:44:17.576Z,97729.00
2018-09-01T17:46:47.593Z,97724.00
2018-09-01T17:49:17.732Z,97727.00
2018-09-01T17:51:48.000Z,97728.00
2018-09-01T17:54:17.999Z,97727.00
2018-09-01T17:56:48.568Z,97727.00
2018-09-01T17:59:18.600Z,97728.00
2018-09-01T18:01:49.039Z,97725.00
2018-09-01T18:04:19.054Z,97721.00
2018-09-01T18:06:49.096Z,97720.00
2018-09-01T18:09:19.125Z,97721.00
2018-09-01T18:11:49.138Z,97725.00
2018-09-01T18:14:19.554Z,97726.00
2018-09-01T18:16:49.805Z,97714.00
2018-09-01T18:19:19.994Z,97727.00
2018-09-01T18:21:49.851Z,97722.00
2018-09-01T18:24:19.865Z,97732.00
2018-09-01T18:26:50.155Z,97735.00
2018-09-01T18:29:20.275Z,97741.00
2018-09-01T18:31:50.745Z,97740.00
2018-09-01T18:34:20.745Z,97740.00
2018-09-01T18:36:51.228Z,97742.00
2018-09-01T18:39:21.656Z,97746.00
2018-09-01T18:41:51.936Z,97747.00
2018-09-01T18:44:22.726Z,97747.00
2018-09-01T18:46:52.991Z,97751.00
2018-09-01T18:49:23.294Z,97755.00
2018-09-01T18:51:53.669Z,97755.00
2018-09-01T18:54:23.999Z,97761.00
2018-09-01T18:56:54.340Z,97763.00
2018-09-01T18:59:24.395Z,97760.00
2018-09-01T19:01:54.368Z,97765.00
2018-09-01T19:04:24.892Z,97768.00
2018-09-01T19:06:55.003Z,97769.00
2018-09-01T19:09:25.015Z,97771.00
2018-09-01T19:11:55.419Z,97773.00
2018-09-01T19:14:25.791Z,97775.00
2018-09-01T19:16:56.327Z,97779.00
2018-09-01T19:19:26.421Z,97787.00
2018-09-01T19:21:56.867Z,97790.00
2018-09-01T19:24:27.032Z,97791.00
2018-09-01T19:26:57.200Z,97788.00
2018-09-01T19:29:27.538Z,97782.00
2018-09-01T19:31:57.584Z,97784.00
2018-09-01T19:34:27.914Z,97782.00
2018-09-01T19:36:58.222Z,97777.00
2018-09-01T19:39:28.210Z,97779.00
2018-09-01T19:41:58.559Z,97782.00
2018-09-01T19:44:29.038Z,97782.00
2018-09-01T19:46:59.150Z,97780.00
2018-09-01T19:49:29.047Z,97783.00
2018-09-01T19:51:59.244Z,97783.00
2018-09-01T19:54:29.658Z,97779.00
2018-09-01T19:57:00.094Z,97774.00
2018-09-01T19:59:30.155Z,97768.00
2018-09-01T20:02:00.261Z,97773.00
2018-09-01T20:04:30.437Z,97770.00
2018-09-01T20:07:00.681Z,97768.00
2018-09-01T20:09:30.786Z,97770.00
2018-09-01T20:12:01.231Z,97772.00
2018-09-01T20:14:31.224Z,97771.00
2018-09-01T20:17:01.835Z,97773.00
2018-09-01T20:19:32.217Z,97772.00
2018-09-01T20:22:02.422Z,97774.00
2018-09-01T20:24:32.379Z,97769.00
2018-09-01T20:27:02.516Z,97769.00
2018-09-01T20:29:32.440Z,97768.00
2018-09-01T20:32:02.687Z,97765.00
2018-09-01T20:34:32.914Z,97760.00
2018-09-01T20:37:02.870Z,97756.00
2018-09-01T20:39:33.193Z,97755.00
2018-09-01T20:42:03.518Z,97757.00
2018-09-01T20:44:33.554Z,97755.00
2018-09-01T20:47:04.299Z,97753.00
2018-09-01T20:49:34.350Z,97756.00
2018-09-01T20:52:04.578Z,97758.00
2018-09-01T20:54:34.946Z,97756.00
2018-09-01T20:57:05.365Z,97754.00
2018-09-01T20:59:35.946Z,97749.00
2018-09-01T21:02:06.504Z,97758.00
2018-09-01T21:04:36.266Z,97758.00
2018-09-01T21:07:05.978Z,97762.00
2018-09-01T21:09:35.632Z,97760.00
2018-09-01T21:12:05.301Z,97759.00
2018-09-01T21:14:34.952Z,97763.00
2018-09-01T21:17:25.721Z,97761.00
2018-09-01T21:19:55.419Z,97768.00
2018-09-01T21:22:25.333Z,97773.00
2018-09-01T21:24:55.047Z,97768.00
2018-09-01T21:27:24.969Z,97765.00
2018-09-01T21:29:54.824Z,97760.00
2018-09-01T21:32:24.438Z,97764.00
2018-09-01T21:34:54.364Z,97764.00
2018-09-01T21:37:24.111Z,97757.00
2018-09-01T21:39:53.770Z,97758.00
2018-09-01T21:42:23.506Z,97758.00
2018-09-01T21:44:53.388Z,97760.00
2018-09-01T21:47:23.199Z,97760.00
2018-09-01T21:49:52.809Z,97760.00
2018-09-01T21:52:22.564Z,97758.00
2018-09-01T21:54:52.260Z,97753.00
2018-09-01T21:57:22.339Z,97755.00
2018-09-01T21:59:52.431Z,97756.00
2018-09-01T22:02:23.382Z,97753.00
2018-09-01T22:04:58.334Z,97752.00
2018-09-01T22:07:28.019Z,97748.00
2018-09-01T22:09:57.777Z,97753.00
2018-09-01T22:12:27.475Z,97757.00
2018-09-01T22:14:57.191Z,97753.00
2018-09-01T22:17:26.983Z,97748.00
2018-09-01T22:19:56.682Z,97744.00
2018-09-01T22:22:26.450Z,97740.00
2018-09-01T22:24:56.171Z,97743.00
2018-09-01T22:27:25.918Z,97738.00
2018-09-01T22:29:55.622Z,97732.00
2018-09-01T22:32:25.390Z,97729.00
2018-09-01T22:34:55.139Z,97729.00
2018-09-01T22:37:24.902Z,97726.00
2018-09-01T22:39:54.547Z,97724.00
2018-09-01T22:42:24.459Z,97717.00
2018-09-01T22:44:54.138Z,97716.00
2018-09-01T22:47:27.110Z,97715.00
2018-09-01T22:49:56.903Z,97710.00
2018-09-01T22:52:26.652Z,97710.00
2018-09-01T22:54:56.757Z,97702.00
2018-09-01T22:57:26.512Z,97703.00
2018-09-01T22:59:56.090Z,97699.00
2018-09-01T23:02:25.816Z,97696.00
2018-09-01T23:04:55.610Z,97689.00
2018-09-01T23:07:25.335Z,97696.00
2018-09-01T23:09:55.209Z,97693.00
2018-09-01T23:12:25.122Z,97689.00
2018-09-01T23:14:54.839Z,97691.00
2018-09-01T23:17:24.629Z,97691.00
2018-09-01T23:19:54.322Z,97687.00
2018-09-01T23:22:24.130Z,97684.00
2018-09-01T23:24:53.955Z,97684.00
2018-09-01T23:27:23.667Z,97684.00
2018-09-01T23:29:53.326Z,97681.00
2018-09-01T23:32:23.484Z,97678.00
2018-09-01T23:34:53.218Z,97682.00
2018-09-01T23:37:23.141Z,97680.00
2018-09-01T23:39:52.814Z,97679.00
2018-09-01T23:42:22.620Z,97681.00
2018-09-01T23:44:52.504Z,97680.00
2018-09-01T23:47:22.372Z,97678.00
2018-09-01T23:49:52.197Z,97673.00
2018-09-01T23:52:22.023Z,97671.00
2018-09-01T23:54:51.855Z,97670.00
2018-09-01T23:57:21.739Z,97670.00
2018-09-01T23:59:51.513Z,97665.00
